WetterOnline ( https://www.wetteronline.de )

Wetter aktuell Iserlohn

Aktuelles Wetter: Lüdenscheid (392m)

6-stündlich | Neueste Meldungen
Ortszeit Temperatur Wetter
Fr, 14.06. 14:00 13.8° C bewölkt
Fr, 14.06. 8:00 12.6° C wolkig
Fr, 14.06. 2:00 13.2° C bewölkt
Do, 13.06. 20:00 15.3° C wolkig
Do, 13.06. 14:00 15.9° C leicht bewölkt
Do, 13.06. 8:00 9.4° C leicht bewölkt
Do, 13.06. 2:00 6.8° C wolkig
Mi, 12.06. 20:00 11.5° C bewölkt
Ortszeit Temperatur Wetter
Fr, 14.06. 16:30 15.1° C bewölkt
Fr, 14.06. 16:10 15.3° C bewölkt
Fr, 14.06. 16:00 15.1° C bedeckt
Fr, 14.06. 15:50 15.1° C bedeckt
Fr, 14.06. 15:40 14.9° C Dunst
Fr, 14.06. 15:30 14.7° C bedeckt
Fr, 14.06. 15:00 14.5° C bedeckt
Fr, 14.06. 14:30 14.2° C bedeckt
Fr, 14.06. 14:00 13.8° C bewölkt
Fr, 14.06. 13:30 14.6° C bewölkt
Ortszeit Relative Feuchte Sichtweite
Fr, 14.06. 14:00 76% >70 km
Fr, 14.06. 8:00 69% 60 km
Fr, 14.06. 2:00 58% >70 km
Do, 13.06. 20:00 51% 55 km
Do, 13.06. 14:00 46% 60 km
Do, 13.06. 8:00 73% 35 km
Do, 13.06. 2:00 91% 35 km
Mi, 12.06. 20:00 63% 50 km
Ortszeit Relative Feuchte Sichtweite
Fr, 14.06. 16:30 77% 65 km
Fr, 14.06. 16:10 75% -
Fr, 14.06. 16:00 75% 60 km
Fr, 14.06. 15:50 75% -
Fr, 14.06. 15:40 75% -
Fr, 14.06. 15:30 75% >70 km
Fr, 14.06. 15:00 75% 40 km
Fr, 14.06. 14:30 76% 65 km
Fr, 14.06. 14:00 76% >70 km
Fr, 14.06. 13:30 72% 50 km
Ortszeit Niederschlagsmenge Niederschlagsart
Fr, 14.06. 14:00 0.1 l/m2 in 6 Std. Regen
Fr, 14.06. 8:00 0.1 l/m2 in 12 Std. Regen
Fr, 14.06. 2:00 0.0 l/m2 in 6 Std. -
Do, 13.06. 20:00 0.0 l/m2 in 12 Std. -
Do, 13.06. 14:00 0.0 l/m2 in 6 Std. -
Do, 13.06. 8:00 1 l/m2 in 12 Std. -
Do, 13.06. 2:00 1 l/m2 in 6 Std. Regen
Mi, 12.06. 20:00 0.1 l/m2 in 12 Std. -
Ortszeit Niederschlagsmenge Niederschlagsart
Fr, 14.06. 16:30 0.0 l/m2 in 30 Min -
Fr, 14.06. 16:10 keine Meldung -
Fr, 14.06. 16:00 0.0 l/m2 in 1 Std. -
Fr, 14.06. 15:50 keine Meldung -
Fr, 14.06. 15:40 keine Meldung -
Fr, 14.06. 15:30 0.0 l/m2 in 30 Min -
Fr, 14.06. 15:00 0.0 l/m2 in 1 Std. -
Fr, 14.06. 14:30 0.0 l/m2 in 30 Min -
Fr, 14.06. 14:00 0.0 l/m2 in 1 Std. Regen
Fr, 14.06. 13:30 0.0 l/m2 in 30 Min -
Ortszeit Stärke Spitze Richtung
km/h Bft. km/h Grad Sektor
Fr, 14.06. 14:00 22 4 47 180° S
Fr, 14.06. 8:00 11 2 36 220° SW
Fr, 14.06. 2:00 6 1 20 160° S
Do, 13.06. 20:00 7 2 36 220° SW
Do, 13.06. 14:00 14 3 29 240° SW
Do, 13.06. 8:00 4 1 7 250° W
Do, 13.06. 2:00 4 1 36 280° W
Mi, 12.06. 20:00 11 2 36 280° W
Ortszeit Stärke Spitze Richtung
km/h Bft. km/h Grad Sektor
Fr, 14.06. 16:30 13 3 30 170° S
Fr, 14.06. 16:10 18 3 - 180° S
Fr, 14.06. 16:00 18 3 36 170° S
Fr, 14.06. 15:50 18 3 - 170° S
Fr, 14.06. 15:40 20 4 - 160° S
Fr, 14.06. 15:30 14 3 36 170° S
Fr, 14.06. 15:00 18 3 36 200° S
Fr, 14.06. 14:30 18 3 36 180° S
Fr, 14.06. 14:00 22 4 36 180° S
Fr, 14.06. 13:30 18 3 36 190° S
Ortszeit Untergrenze Bedeckung Gattung
total tief tief mittel hoch
Fr, 14.06. 14:00 570 m 7/8 7/8 - - -
Fr, 14.06. 8:00 1800 m 7/8 1/8 - - -
Fr, 14.06. 2:00 1800 m 8/8 6/8 - - -
Do, 13.06. 20:00 1800 m 7/8 1/8 - - -
Do, 13.06. 14:00 1500 m 3/8 2/8 - - -
Do, 13.06. 8:00 3000 m 3/8 1/8 - - -
Do, 13.06. 2:00 2100 m 8/8 3/8 - - -
Mi, 12.06. 20:00 1500 m 7/8 7/8 - - -
Ortszeit Bedeckungsgrad in Achtel und Wolkenuntergrenze
Fr, 14.06. 16:30 7(630m) 7(810m)
Fr, 14.06. 16:10 7
Fr, 14.06. 16:00 7(600m) 8(780m)
Fr, 14.06. 15:50 7(600m) 8(780m)
Fr, 14.06. 15:40 8
Fr, 14.06. 15:30 5(540m) 7(720m) 8(840m)
Fr, 14.06. 15:00 3(540m) 7(840m) 8(1230m)
Fr, 14.06. 14:30 7(540m) 8(750m)
Fr, 14.06. 14:00 7(570m)
Fr, 14.06. 13:30 6(630m) 7(810m) 7(1800m)
Ortszeit Luftdruck NN (hPa) Tendenz (hPa in 3 Std.)
Fr, 14.06. 14:00 1009 - 0,3
Fr, 14.06. 8:00 1010 - 0,3
Fr, 14.06. 2:00 1012 - 1,6
Do, 13.06. 20:00 1014 - 1,4
Do, 13.06. 14:00 1017 - 0,9
Do, 13.06. 8:00 1019 + 0,1
Do, 13.06. 2:00 1021 + 0,3
Mi, 12.06. 20:00 1019 - 0,2
Ortszeit Luftdruck NN (hPa) Tendenz (hPa in 3 Std.)
Fr, 14.06. 16:30 1008 - 0,5
Fr, 14.06. 16:10 1008 keine Meldung
Fr, 14.06. 16:00 1008 - 0,2
Fr, 14.06. 15:50 1008 keine Meldung
Fr, 14.06. 15:40 1008 keine Meldung
Fr, 14.06. 15:30 1009 - 0,1
Fr, 14.06. 15:00 1009 - 0,1
Fr, 14.06. 14:30 1009 - 0,1
Fr, 14.06. 14:00 1009 - 0,3
Fr, 14.06. 13:30 1009 - 0,6
Ortszeit Schneehöhe (cm)
Fr, 14.06. 14:00 0
Fr, 14.06. 8:00 0
Fr, 14.06. 2:00 0
Do, 13.06. 20:00 0
Do, 13.06. 14:00 0
Do, 13.06. 8:00 0
Do, 13.06. 2:00 0
Mi, 12.06. 20:00 0
Ortszeit Schneehöhe (cm)
Fr, 14.06. 16:30 0
Fr, 14.06. 16:10 -
Fr, 14.06. 16:00 0
Fr, 14.06. 15:50 0
Fr, 14.06. 15:40 -
Fr, 14.06. 15:30 0
Fr, 14.06. 15:00 0
Fr, 14.06. 14:30 0
Fr, 14.06. 14:00 0
Fr, 14.06. 13:30 0
Link zu dieser Seite / Seite empfehlen

Das Wetter in ...